sensor_id;sensor_type;location;lat;lon;timestamp;P1;durP1;ratioP1;P2;durP2;ratioP2
4375;SDS011;2202;50.866;12.750;2023-04-04T00:01:58;8.60;;;5.43;;
4375;SDS011;2202;50.866;12.750;2023-04-04T00:04:25;5.77;;;5.13;;
4375;SDS011;2202;50.866;12.750;2023-04-04T00:06:52;9.00;;;4.90;;
4375;SDS011;2202;50.866;12.750;2023-04-04T00:09:19;5.37;;;4.90;;
4375;SDS011;2202;50.866;12.750;2023-04-04T00:11:47;6.97;;;5.70;;
4375;SDS011;2202;50.866;12.750;2023-04-04T00:14:15;9.13;;;5.73;;
4375;SDS011;2202;50.866;12.750;2023-04-04T00:16:42;10.23;;;6.20;;
4375;SDS011;2202;50.866;12.750;2023-04-04T00:19:09;9.87;;;6.80;;
4375;SDS011;2202;50.866;12.750;2023-04-04T00:21:41;6.37;;;5.30;;
4375;SDS011;2202;50.866;12.750;2023-04-04T00:24:09;6.77;;;6.17;;
4375;SDS011;2202;50.866;12.750;2023-04-04T00:29:07;5.83;;;5.23;;
4375;SDS011;2202;50.866;12.750;2023-04-04T00:31:34;5.33;;;4.87;;
4375;SDS011;2202;50.866;12.750;2023-04-04T00:34:01;8.20;;;4.80;;
4375;SDS011;2202;50.866;12.750;2023-04-04T00:36:28;7.80;;;5.13;;
4375;SDS011;2202;50.866;12.750;2023-04-04T00:38:54;6.70;;;5.33;;
4375;SDS011;2202;50.866;12.750;2023-04-04T00:41:21;6.30;;;5.70;;
4375;SDS011;2202;50.866;12.750;2023-04-04T00:43:48;5.83;;;5.23;;
4375;SDS011;2202;50.866;12.750;2023-04-04T00:46:17;7.97;;;6.50;;
4375;SDS011;2202;50.866;12.750;2023-04-04T00:48:44;8.13;;;6.37;;
4375;SDS011;2202;50.866;12.750;2023-04-04T00:51:13;5.90;;;5.30;;
4375;SDS011;2202;50.866;12.750;2023-04-04T00:53:39;5.70;;;5.10;;
4375;SDS011;2202;50.866;12.750;2023-04-04T00:56:11;5.27;;;4.73;;
4375;SDS011;2202;50.866;12.750;2023-04-04T00:58:40;5.63;;;5.13;;
4375;SDS011;2202;50.866;12.750;2023-04-04T01:01:07;12.63;;;6.40;;
4375;SDS011;2202;50.866;12.750;2023-04-04T01:03:36;12.73;;;7.10;;
4375;SDS011;2202;50.866;12.750;2023-04-04T01:06:04;7.50;;;6.37;;
4375;SDS011;2202;50.866;12.750;2023-04-04T01:08:33;6.77;;;5.80;;
4375;SDS011;2202;50.866;12.750;2023-04-04T01:11:02;6.23;;;5.33;;
4375;SDS011;2202;50.866;12.750;2023-04-04T01:13:30;9.90;;;6.37;;
4375;SDS011;2202;50.866;12.750;2023-04-04T01:15:57;11.67;;;8.10;;
4375;SDS011;2202;50.866;12.750;2023-04-04T01:18:24;26.30;;;17.33;;
4375;SDS011;2202;50.866;12.750;2023-04-04T01:20:55;21.27;;;13.33;;
4375;SDS011;2202;50.866;12.750;2023-04-04T01:23:28;23.43;;;14.33;;
4375;SDS011;2202;50.866;12.750;2023-04-04T01:26:02;24.80;;;14.23;;
4375;SDS011;2202;50.866;12.750;2023-04-04T01:28:29;31.03;;;19.47;;
4375;SDS011;2202;50.866;12.750;2023-04-04T01:30:56;31.83;;;18.70;;
4375;SDS011;2202;50.866;12.750;2023-04-04T01:33:27;30.13;;;18.17;;
4375;SDS011;2202;50.866;12.750;2023-04-04T01:36:00;25.70;;;16.93;;
4375;SDS011;2202;50.866;12.750;2023-04-04T01:38:32;26.40;;;18.70;;
4375;SDS011;2202;50.866;12.750;2023-04-04T01:41:05;26.10;;;18.20;;
4375;SDS011;2202;50.866;12.750;2023-04-04T01:43:34;26.63;;;17.60;;
4375;SDS011;2202;50.866;12.750;2023-04-04T01:46:01;25.50;;;16.67;;
4375;SDS011;2202;50.866;12.750;2023-04-04T01:48:29;22.17;;;12.57;;
4375;SDS011;2202;50.866;12.750;2023-04-04T01:50:56;16.20;;;10.40;;
4375;SDS011;2202;50.866;12.750;2023-04-04T01:53:23;10.23;;;8.10;;
4375;SDS011;2202;50.866;12.750;2023-04-04T01:55:50;7.80;;;7.00;;
4375;SDS011;2202;50.866;12.750;2023-04-04T01:58:19;7.53;;;6.10;;
4375;SDS011;2202;50.866;12.750;2023-04-04T02:00:46;5.87;;;5.27;;
4375;SDS011;2202;50.866;12.750;2023-04-04T02:03:13;8.57;;;5.70;;
4375;SDS011;2202;50.866;12.750;2023-04-04T02:05:40;5.10;;;4.60;;
4375;SDS011;2202;50.866;12.750;2023-04-04T02:08:07;5.67;;;4.97;;
4375;SDS011;2202;50.866;12.750;2023-04-04T02:10:33;6.53;;;4.90;;
4375;SDS011;2202;50.866;12.750;2023-04-04T02:13:00;9.13;;;4.93;;
4375;SDS011;2202;50.866;12.750;2023-04-04T02:15:28;5.80;;;5.30;;
4375;SDS011;2202;50.866;12.750;2023-04-04T02:17:55;5.33;;;4.83;;
4375;SDS011;2202;50.866;12.750;2023-04-04T02:20:22;7.07;;;5.07;;
4375;SDS011;2202;50.866;12.750;2023-04-04T02:22:49;5.50;;;5.00;;
4375;SDS011;2202;50.866;12.750;2023-04-04T02:25:17;12.10;;;7.10;;
4375;SDS011;2202;50.866;12.750;2023-04-04T02:27:44;19.33;;;13.10;;
4375;SDS011;2202;50.866;12.750;2023-04-04T02:30:12;18.70;;;14.60;;
4375;SDS011;2202;50.866;12.750;2023-04-04T02:32:40;29.53;;;14.93;;
4375;SDS011;2202;50.866;12.750;2023-04-04T02:35:07;25.03;;;15.90;;
4375;SDS011;2202;50.866;12.750;2023-04-04T02:37:34;20.00;;;12.63;;
4375;SDS011;2202;50.866;12.750;2023-04-04T02:40:01;16.13;;;10.80;;
4375;SDS011;2202;50.866;12.750;2023-04-04T02:42:29;11.90;;;8.13;;
4375;SDS011;2202;50.866;12.750;2023-04-04T02:44:56;12.00;;;6.80;;
4375;SDS011;2202;50.866;12.750;2023-04-04T02:47:23;9.23;;;5.20;;
4375;SDS011;2202;50.866;12.750;2023-04-04T02:49:51;7.93;;;5.80;;
4375;SDS011;2202;50.866;12.750;2023-04-04T02:52:19;5.20;;;4.70;;
4375;SDS011;2202;50.866;12.750;2023-04-04T02:54:46;5.93;;;5.00;;
4375;SDS011;2202;50.866;12.750;2023-04-04T02:57:13;8.90;;;6.13;;
4375;SDS011;2202;50.866;12.750;2023-04-04T02:59:40;5.40;;;4.30;;
4375;SDS011;2202;50.866;12.750;2023-04-04T03:02:07;4.80;;;4.40;;
4375;SDS011;2202;50.866;12.750;2023-04-04T03:04:34;8.33;;;5.20;;
4375;SDS011;2202;50.866;12.750;2023-04-04T03:07:02;6.47;;;4.27;;
4375;SDS011;2202;50.866;12.750;2023-04-04T03:09:30;4.87;;;4.47;;
4375;SDS011;2202;50.866;12.750;2023-04-04T03:11:57;4.73;;;4.30;;
4375;SDS011;2202;50.866;12.750;2023-04-04T03:14:25;7.57;;;4.60;;
4375;SDS011;2202;50.866;12.750;2023-04-04T03:16:53;8.00;;;7.30;;
4375;SDS011;2202;50.866;12.750;2023-04-04T03:19:20;4.97;;;4.57;;
4375;SDS011;2202;50.866;12.750;2023-04-04T03:21:47;4.70;;;4.27;;
4375;SDS011;2202;50.866;12.750;2023-04-04T03:24:15;10.03;;;5.27;;
4375;SDS011;2202;50.866;12.750;2023-04-04T03:26:42;6.50;;;4.70;;
4375;SDS011;2202;50.866;12.750;2023-04-04T03:29:09;6.00;;;4.67;;
4375;SDS011;2202;50.866;12.750;2023-04-04T03:31:36;8.37;;;4.93;;
4375;SDS011;2202;50.866;12.750;2023-04-04T03:34:03;9.23;;;5.13;;
4375;SDS011;2202;50.866;12.750;2023-04-04T03:36:30;5.03;;;4.57;;
4375;SDS011;2202;50.866;12.750;2023-04-04T03:38:57;10.03;;;5.77;;
4375;SDS011;2202;50.866;12.750;2023-04-04T03:41:25;6.50;;;5.50;;
4375;SDS011;2202;50.866;12.750;2023-04-04T03:43:52;5.40;;;4.90;;
4375;SDS011;2202;50.866;12.750;2023-04-04T03:46:18;9.10;;;5.70;;
4375;SDS011;2202;50.866;12.750;2023-04-04T03:48:45;5.70;;;5.20;;
4375;SDS011;2202;50.866;12.750;2023-04-04T03:51:12;5.43;;;4.93;;
4375;SDS011;2202;50.866;12.750;2023-04-04T03:53:39;7.73;;;5.90;;
4375;SDS011;2202;50.866;12.750;2023-04-04T03:56:06;6.30;;;5.27;;
4375;SDS011;2202;50.866;12.750;2023-04-04T03:58:35;8.40;;;5.80;;
4375;SDS011;2202;50.866;12.750;2023-04-04T04:01:02;10.20;;;5.83;;
4375;SDS011;2202;50.866;12.750;2023-04-04T04:03:29;5.70;;;4.70;;
4375;SDS011;2202;50.866;12.750;2023-04-04T04:05:55;6.10;;;5.47;;
4375;SDS011;2202;50.866;12.750;2023-04-04T04:08:22;7.53;;;5.20;;
4375;SDS011;2202;50.866;12.750;2023-04-04T04:10:49;7.77;;;6.27;;
4375;SDS011;2202;50.866;12.750;2023-04-04T04:13:16;8.80;;;6.87;;
4375;SDS011;2202;50.866;12.750;2023-04-04T04:15:44;7.67;;;6.17;;
4375;SDS011;2202;50.866;12.750;2023-04-04T04:18:11;6.33;;;5.30;;
4375;SDS011;2202;50.866;12.750;2023-04-04T04:20:38;7.63;;;6.23;;
4375;SDS011;2202;50.866;12.750;2023-04-04T04:23:05;5.63;;;5.00;;
4375;SDS011;2202;50.866;12.750;2023-04-04T04:25:32;8.33;;;5.60;;
4375;SDS011;2202;50.866;12.750;2023-04-04T04:27:58;8.80;;;5.30;;
4375;SDS011;2202;50.866;12.750;2023-04-04T04:30:25;12.53;;;6.23;;
4375;SDS011;2202;50.866;12.750;2023-04-04T04:32:53;8.53;;;5.43;;
4375;SDS011;2202;50.866;12.750;2023-04-04T04:35:21;6.67;;;6.03;;
4375;SDS011;2202;50.866;12.750;2023-04-04T04:37:48;6.27;;;5.20;;
4375;SDS011;2202;50.866;12.750;2023-04-04T04:40:14;14.70;;;6.10;;
4375;SDS011;2202;50.866;12.750;2023-04-04T04:42:42;5.30;;;4.80;;
4375;SDS011;2202;50.866;12.750;2023-04-04T04:45:10;8.13;;;5.60;;
4375;SDS011;2202;50.866;12.750;2023-04-04T04:47:37;14.93;;;5.60;;
4375;SDS011;2202;50.866;12.750;2023-04-04T04:50:06;6.63;;;5.00;;
4375;SDS011;2202;50.866;12.750;2023-04-04T04:52:34;6.07;;;5.43;;
4375;SDS011;2202;50.866;12.750;2023-04-04T04:55:02;8.57;;;6.43;;
4375;SDS011;2202;50.866;12.750;2023-04-04T04:57:29;14.77;;;8.30;;
4375;SDS011;2202;50.866;12.750;2023-04-04T04:59:58;9.03;;;6.93;;
4375;SDS011;2202;50.866;12.750;2023-04-04T05:02:25;16.40;;;7.03;;
4375;SDS011;2202;50.866;12.750;2023-04-04T05:04:52;9.23;;;6.63;;
4375;SDS011;2202;50.866;12.750;2023-04-04T05:07:20;28.67;;;9.10;;
4375;SDS011;2202;50.866;12.750;2023-04-04T05:09:47;10.90;;;6.80;;
4375;SDS011;2202;50.866;12.750;2023-04-04T05:12:14;10.60;;;7.40;;
4375;SDS011;2202;50.866;12.750;2023-04-04T05:14:42;11.07;;;8.67;;
4375;SDS011;2202;50.866;12.750;2023-04-04T05:17:08;8.93;;;6.40;;
4375;SDS011;2202;50.866;12.750;2023-04-04T05:19:35;8.57;;;6.27;;
4375;SDS011;2202;50.866;12.750;2023-04-04T05:22:02;7.20;;;5.67;;
4375;SDS011;2202;50.866;12.750;2023-04-04T05:24:30;8.90;;;6.20;;
4375;SDS011;2202;50.866;12.750;2023-04-04T05:26:57;11.20;;;6.37;;
4375;SDS011;2202;50.866;12.750;2023-04-04T05:29:24;11.10;;;6.83;;
4375;SDS011;2202;50.866;12.750;2023-04-04T05:31:51;8.47;;;6.50;;
4375;SDS011;2202;50.866;12.750;2023-04-04T05:34:18;9.93;;;6.43;;
4375;SDS011;2202;50.866;12.750;2023-04-04T05:36:45;9.70;;;6.60;;
4375;SDS011;2202;50.866;12.750;2023-04-04T05:39:12;11.57;;;7.70;;
4375;SDS011;2202;50.866;12.750;2023-04-04T05:41:40;10.87;;;6.80;;
4375;SDS011;2202;50.866;12.750;2023-04-04T05:44:07;11.37;;;7.80;;
4375;SDS011;2202;50.866;12.750;2023-04-04T05:46:34;10.13;;;7.63;;
4375;SDS011;2202;50.866;12.750;2023-04-04T05:49:01;9.03;;;7.43;;
4375;SDS011;2202;50.866;12.750;2023-04-04T05:51:28;8.90;;;7.67;;
4375;SDS011;2202;50.866;12.750;2023-04-04T05:53:55;10.90;;;8.90;;
4375;SDS011;2202;50.866;12.750;2023-04-04T05:56:21;8.00;;;7.10;;
4375;SDS011;2202;50.866;12.750;2023-04-04T05:58:50;10.93;;;8.03;;
4375;SDS011;2202;50.866;12.750;2023-04-04T06:01:17;14.30;;;8.63;;
4375;SDS011;2202;50.866;12.750;2023-04-04T06:03:44;17.23;;;9.47;;
4375;SDS011;2202;50.866;12.750;2023-04-04T06:06:11;11.10;;;8.67;;
4375;SDS011;2202;50.866;12.750;2023-04-04T06:08:38;13.83;;;9.57;;
4375;SDS011;2202;50.866;12.750;2023-04-04T06:11:05;9.87;;;8.87;;
4375;SDS011;2202;50.866;12.750;2023-04-04T06:13:31;12.53;;;9.57;;
4375;SDS011;2202;50.866;12.750;2023-04-04T06:16:00;11.47;;;9.40;;
4375;SDS011;2202;50.866;12.750;2023-04-04T06:18:27;15.70;;;10.57;;
4375;SDS011;2202;50.866;12.750;2023-04-04T06:20:53;12.93;;;10.70;;
4375;SDS011;2202;50.866;12.750;2023-04-04T06:23:20;13.10;;;10.17;;
4375;SDS011;2202;50.866;12.750;2023-04-04T06:25:47;18.70;;;9.70;;
4375;SDS011;2202;50.866;12.750;2023-04-04T06:28:14;14.17;;;9.40;;
4375;SDS011;2202;50.866;12.750;2023-04-04T06:30:42;17.27;;;11.00;;
4375;SDS011;2202;50.866;12.750;2023-04-04T06:33:11;14.80;;;9.00;;
4375;SDS011;2202;50.866;12.750;2023-04-04T06:35:37;13.80;;;9.40;;
4375;SDS011;2202;50.866;12.750;2023-04-04T06:38:04;13.93;;;9.43;;
4375;SDS011;2202;50.866;12.750;2023-04-04T06:40:31;14.53;;;10.63;;
4375;SDS011;2202;50.866;12.750;2023-04-04T06:42:58;13.27;;;9.60;;
4375;SDS011;2202;50.866;12.750;2023-04-04T06:45:25;13.23;;;9.80;;
4375;SDS011;2202;50.866;12.750;2023-04-04T06:47:53;15.23;;;10.67;;
4375;SDS011;2202;50.866;12.750;2023-04-04T06:50:21;18.43;;;10.37;;
4375;SDS011;2202;50.866;12.750;2023-04-04T06:52:48;16.73;;;11.77;;
4375;SDS011;2202;50.866;12.750;2023-04-04T06:55:16;15.73;;;11.27;;
4375;SDS011;2202;50.866;12.750;2023-04-04T06:57:43;15.80;;;11.17;;
4375;SDS011;2202;50.866;12.750;2023-04-04T07:00:11;15.97;;;12.53;;
4375;SDS011;2202;50.866;12.750;2023-04-04T07:02:39;14.57;;;10.03;;
4375;SDS011;2202;50.866;12.750;2023-04-04T07:05:06;13.10;;;11.37;;
4375;SDS011;2202;50.866;12.750;2023-04-04T07:07:36;13.43;;;10.43;;
4375;SDS011;2202;50.866;12.750;2023-04-04T07:10:03;11.70;;;10.00;;
4375;SDS011;2202;50.866;12.750;2023-04-04T07:12:30;12.20;;;10.80;;
4375;SDS011;2202;50.866;12.750;2023-04-04T07:14:57;19.67;;;13.00;;
4375;SDS011;2202;50.866;12.750;2023-04-04T07:17:24;13.27;;;11.03;;
4375;SDS011;2202;50.866;12.750;2023-04-04T07:19:51;11.80;;;10.50;;
4375;SDS011;2202;50.866;12.750;2023-04-04T07:22:18;9.87;;;8.70;;
4375;SDS011;2202;50.866;12.750;2023-04-04T07:24:46;11.50;;;9.47;;
4375;SDS011;2202;50.866;12.750;2023-04-04T07:27:13;12.50;;;9.37;;
4375;SDS011;2202;50.866;12.750;2023-04-04T07:29:40;10.77;;;9.43;;
4375;SDS011;2202;50.866;12.750;2023-04-04T07:32:07;14.23;;;9.80;;
4375;SDS011;2202;50.866;12.750;2023-04-04T07:34:34;10.67;;;8.63;;
4375;SDS011;2202;50.866;12.750;2023-04-04T07:37:01;10.80;;;9.70;;
4375;SDS011;2202;50.866;12.750;2023-04-04T07:39:28;12.00;;;10.23;;
4375;SDS011;2202;50.866;12.750;2023-04-04T07:41:56;10.27;;;8.83;;
4375;SDS011;2202;50.866;12.750;2023-04-04T07:44:23;11.97;;;9.93;;
4375;SDS011;2202;50.866;12.750;2023-04-04T07:46:50;16.37;;;12.20;;
4375;SDS011;2202;50.866;12.750;2023-04-04T07:49:17;9.13;;;8.03;;
4375;SDS011;2202;50.866;12.750;2023-04-04T07:51:44;10.57;;;7.93;;
4375;SDS011;2202;50.866;12.750;2023-04-04T07:54:11;10.90;;;8.93;;
4375;SDS011;2202;50.866;12.750;2023-04-04T07:56:38;9.60;;;7.93;;
4375;SDS011;2202;50.866;12.750;2023-04-04T07:59:06;10.67;;;7.47;;
4375;SDS011;2202;50.866;12.750;2023-04-04T08:01:33;14.53;;;8.73;;
4375;SDS011;2202;50.866;12.750;2023-04-04T08:04:01;9.83;;;7.23;;
4375;SDS011;2202;50.866;12.750;2023-04-04T08:06:29;8.10;;;7.07;;
4375;SDS011;2202;50.866;12.750;2023-04-04T08:08:57;7.70;;;7.00;;
4375;SDS011;2202;50.866;12.750;2023-04-04T08:11:24;9.00;;;7.50;;
4375;SDS011;2202;50.866;12.750;2023-04-04T08:13:51;7.50;;;6.50;;
4375;SDS011;2202;50.866;12.750;2023-04-04T08:16:19;8.60;;;6.67;;
4375;SDS011;2202;50.866;12.750;2023-04-04T08:18:47;7.90;;;6.50;;
4375;SDS011;2202;50.866;12.750;2023-04-04T08:21:14;10.10;;;6.80;;
4375;SDS011;2202;50.866;12.750;2023-04-04T08:23:41;8.30;;;6.17;;
4375;SDS011;2202;50.866;12.750;2023-04-04T08:26:08;9.20;;;6.63;;
4375;SDS011;2202;50.866;12.750;2023-04-04T08:28:35;7.87;;;6.40;;
4375;SDS011;2202;50.866;12.750;2023-04-04T08:31:02;7.03;;;6.40;;
4375;SDS011;2202;50.866;12.750;2023-04-04T08:33:31;6.47;;;5.87;;
4375;SDS011;2202;50.866;12.750;2023-04-04T08:35:58;8.30;;;6.43;;
4375;SDS011;2202;50.866;12.750;2023-04-04T08:38:25;7.00;;;5.57;;
4375;SDS011;2202;50.866;12.750;2023-04-04T08:40:52;8.23;;;5.50;;
4375;SDS011;2202;50.866;12.750;2023-04-04T08:43:19;5.87;;;5.27;;
4375;SDS011;2202;50.866;12.750;2023-04-04T08:45:48;6.93;;;5.80;;
4375;SDS011;2202;50.866;12.750;2023-04-04T08:48:18;5.87;;;5.27;;
4375;SDS011;2202;50.866;12.750;2023-04-04T08:50:48;8.03;;;5.10;;
4375;SDS011;2202;50.866;12.750;2023-04-04T08:53:15;6.57;;;4.70;;
4375;SDS011;2202;50.866;12.750;2023-04-04T08:55:43;4.67;;;4.30;;
4375;SDS011;2202;50.866;12.750;2023-04-04T08:58:10;6.20;;;5.20;;
4375;SDS011;2202;50.866;12.750;2023-04-04T09:00:36;5.33;;;4.87;;
4375;SDS011;2202;50.866;12.750;2023-04-04T09:03:08;9.17;;;5.50;;
4375;SDS011;2202;50.866;12.750;2023-04-04T09:05:39;6.83;;;5.00;;
4375;SDS011;2202;50.866;12.750;2023-04-04T09:08:10;5.33;;;4.80;;
4375;SDS011;2202;50.866;12.750;2023-04-04T09:10:37;9.03;;;6.20;;
4375;SDS011;2202;50.866;12.750;2023-04-04T09:13:08;4.70;;;4.30;;
4375;SDS011;2202;50.866;12.750;2023-04-04T09:15:35;6.50;;;4.87;;
4375;SDS011;2202;50.866;12.750;2023-04-04T09:18:03;6.70;;;4.90;;
4375;SDS011;2202;50.866;12.750;2023-04-04T09:20:37;6.13;;;4.80;;
4375;SDS011;2202;50.866;12.750;2023-04-04T09:23:05;4.60;;;4.20;;
4375;SDS011;2202;50.866;12.750;2023-04-04T09:25:35;4.73;;;4.33;;
4375;SDS011;2202;50.866;12.750;2023-04-04T09:28:02;5.03;;;4.40;;
4375;SDS011;2202;50.866;12.750;2023-04-04T09:30:30;5.17;;;4.50;;
4375;SDS011;2202;50.866;12.750;2023-04-04T09:33:02;6.67;;;4.80;;
4375;SDS011;2202;50.866;12.750;2023-04-04T09:35:30;8.33;;;4.47;;
4375;SDS011;2202;50.866;12.750;2023-04-04T09:37:59;5.33;;;4.57;;
4375;SDS011;2202;50.866;12.750;2023-04-04T09:40:26;6.00;;;5.03;;
4375;SDS011;2202;50.866;12.750;2023-04-04T09:42:55;4.90;;;4.50;;
4375;SDS011;2202;50.866;12.750;2023-04-04T09:45:25;4.87;;;4.00;;
4375;SDS011;2202;50.866;12.750;2023-04-04T09:47:53;4.67;;;4.27;;
4375;SDS011;2202;50.866;12.750;2023-04-04T09:50:21;6.73;;;5.50;;
4375;SDS011;2202;50.866;12.750;2023-04-04T09:52:49;5.43;;;4.93;;
4375;SDS011;2202;50.866;12.750;2023-04-04T09:55:16;4.93;;;4.47;;
4375;SDS011;2202;50.866;12.750;2023-04-04T09:57:45;5.43;;;4.40;;
4375;SDS011;2202;50.866;12.750;2023-04-04T10:00:18;9.13;;;6.27;;
4375;SDS011;2202;50.866;12.750;2023-04-04T10:02:46;8.73;;;4.83;;
4375;SDS011;2202;50.866;12.750;2023-04-04T10:05:14;5.17;;;4.70;;
4375;SDS011;2202;50.866;12.750;2023-04-04T10:07:42;4.37;;;3.97;;
4375;SDS011;2202;50.866;12.750;2023-04-04T10:10:12;7.17;;;4.23;;
4375;SDS011;2202;50.866;12.750;2023-04-04T10:12:43;4.73;;;4.30;;
4375;SDS011;2202;50.866;12.750;2023-04-04T10:15:11;4.57;;;3.70;;
4375;SDS011;2202;50.866;12.750;2023-04-04T10:17:42;4.40;;;4.00;;
4375;SDS011;2202;50.866;12.750;2023-04-04T10:20:12;4.40;;;3.27;;
4375;SDS011;2202;50.866;12.750;2023-04-04T10:22:39;4.73;;;3.40;;
4375;SDS011;2202;50.866;12.750;2023-04-04T10:25:09;3.83;;;3.53;;
4375;SDS011;2202;50.866;12.750;2023-04-04T10:27:36;4.43;;;4.07;;
4375;SDS011;2202;50.866;12.750;2023-04-04T10:30:03;6.53;;;4.30;;
4375;SDS011;2202;50.866;12.750;2023-04-04T10:32:35;4.13;;;3.70;;
4375;SDS011;2202;50.866;12.750;2023-04-04T10:35:12;3.63;;;3.33;;
4375;SDS011;2202;50.866;12.750;2023-04-04T10:37:41;3.70;;;3.23;;
4375;SDS011;2202;50.866;12.750;2023-04-04T10:40:12;5.40;;;4.17;;
4375;SDS011;2202;50.866;12.750;2023-04-04T10:42:44;5.70;;;4.23;;
4375;SDS011;2202;50.866;12.750;2023-04-04T10:45:13;4.33;;;3.93;;
4375;SDS011;2202;50.866;12.750;2023-04-04T10:47:42;5.00;;;4.53;;
4375;SDS011;2202;50.866;12.750;2023-04-04T10:50:10;5.13;;;4.63;;
4375;SDS011;2202;50.866;12.750;2023-04-04T10:52:38;5.00;;;4.17;;
4375;SDS011;2202;50.866;12.750;2023-04-04T10:55:07;4.47;;;4.07;;
4375;SDS011;2202;50.866;12.750;2023-04-04T10:57:38;6.40;;;4.77;;
4375;SDS011;2202;50.866;12.750;2023-04-04T11:00:07;5.63;;;4.70;;
4375;SDS011;2202;50.866;12.750;2023-04-04T11:02:48;4.10;;;3.80;;
4375;SDS011;2202;50.866;12.750;2023-04-04T11:05:20;3.73;;;3.43;;
4375;SDS011;2202;50.866;12.750;2023-04-04T11:07:51;4.13;;;3.60;;
4375;SDS011;2202;50.866;12.750;2023-04-04T11:10:22;3.80;;;3.50;;
4375;SDS011;2202;50.866;12.750;2023-04-04T11:12:53;3.93;;;3.60;;
4375;SDS011;2202;50.866;12.750;2023-04-04T11:15:23;9.13;;;3.43;;
4375;SDS011;2202;50.866;12.750;2023-04-04T11:17:56;5.77;;;4.20;;
4375;SDS011;2202;50.866;12.750;2023-04-04T11:20:27;8.47;;;5.10;;
4375;SDS011;2202;50.866;12.750;2023-04-04T11:23:06;3.87;;;3.30;;
4375;SDS011;2202;50.866;12.750;2023-04-04T11:25:38;3.83;;;3.53;;
4375;SDS011;2202;50.866;12.750;2023-04-04T11:28:07;7.27;;;3.60;;
4375;SDS011;2202;50.866;12.750;2023-04-04T11:30:39;3.80;;;3.50;;
4375;SDS011;2202;50.866;12.750;2023-04-04T11:33:17;3.87;;;3.67;;
4375;SDS011;2202;50.866;12.750;2023-04-04T11:35:52;5.70;;;3.40;;
4375;SDS011;2202;50.866;12.750;2023-04-04T11:38:25;3.23;;;3.03;;
4375;SDS011;2202;50.866;12.750;2023-04-04T11:40:54;4.30;;;3.90;;
4375;SDS011;2202;50.866;12.750;2023-04-04T11:43:22;4.70;;;4.30;;
4375;SDS011;2202;50.866;12.750;2023-04-04T11:45:50;6.10;;;3.87;;
4375;SDS011;2202;50.866;12.750;2023-04-04T11:48:20;3.80;;;3.50;;
4375;SDS011;2202;50.866;12.750;2023-04-04T11:50:49;6.07;;;3.67;;
4375;SDS011;2202;50.866;12.750;2023-04-04T11:53:16;4.23;;;2.90;;
4375;SDS011;2202;50.866;12.750;2023-04-04T11:55:43;4.97;;;2.30;;
4375;SDS011;2202;50.866;12.750;2023-04-04T11:58:15;3.37;;;3.07;;
4375;SDS011;2202;50.866;12.750;2023-04-04T12:00:43;5.77;;;2.77;;
4375;SDS011;2202;50.866;12.750;2023-04-04T12:03:11;4.57;;;3.00;;
4375;SDS011;2202;50.866;12.750;2023-04-04T12:05:41;3.33;;;3.00;;
4375;SDS011;2202;50.866;12.750;2023-04-04T12:08:10;3.27;;;3.00;;
4375;SDS011;2202;50.866;12.750;2023-04-04T12:10:38;4.03;;;3.30;;
4375;SDS011;2202;50.866;12.750;2023-04-04T12:13:06;3.60;;;3.30;;
4375;SDS011;2202;50.866;12.750;2023-04-04T12:15:34;4.33;;;3.93;;
4375;SDS011;2202;50.866;12.750;2023-04-04T12:18:02;3.40;;;3.13;;
4375;SDS011;2202;50.866;12.750;2023-04-04T12:20:32;3.60;;;3.30;;
4375;SDS011;2202;50.866;12.750;2023-04-04T12:23:01;4.83;;;3.03;;
4375;SDS011;2202;50.866;12.750;2023-04-04T12:25:28;4.80;;;3.77;;
4375;SDS011;2202;50.866;12.750;2023-04-04T12:27:58;5.20;;;4.10;;
4375;SDS011;2202;50.866;12.750;2023-04-04T12:30:25;3.70;;;3.40;;
4375;SDS011;2202;50.866;12.750;2023-04-04T12:32:53;3.53;;;2.90;;
4375;SDS011;2202;50.866;12.750;2023-04-04T12:35:20;3.80;;;3.40;;
4375;SDS011;2202;50.866;12.750;2023-04-04T12:37:55;3.90;;;3.20;;
4375;SDS011;2202;50.866;12.750;2023-04-04T12:40:27;3.47;;;3.10;;
4375;SDS011;2202;50.866;12.750;2023-04-04T12:42:55;5.37;;;3.40;;
4375;SDS011;2202;50.866;12.750;2023-04-04T12:45:24;7.50;;;3.80;;
4375;SDS011;2202;50.866;12.750;2023-04-04T12:47:51;5.00;;;3.30;;
4375;SDS011;2202;50.866;12.750;2023-04-04T12:50:19;5.77;;;2.77;;
4375;SDS011;2202;50.866;12.750;2023-04-04T12:52:49;3.20;;;2.90;;
4375;SDS011;2202;50.866;12.750;2023-04-04T12:57:45;3.90;;;3.00;;
4375;SDS011;2202;50.866;12.750;2023-04-04T13:00:12;3.70;;;3.20;;
4375;SDS011;2202;50.866;12.750;2023-04-04T13:02:42;3.67;;;3.37;;
4375;SDS011;2202;50.866;12.750;2023-04-04T13:05:10;5.80;;;3.20;;
4375;SDS011;2202;50.866;12.750;2023-04-04T13:07:40;6.60;;;2.73;;
4375;SDS011;2202;50.866;12.750;2023-04-04T13:10:08;3.40;;;2.93;;
4375;SDS011;2202;50.866;12.750;2023-04-04T13:12:52;7.17;;;2.80;;
4375;SDS011;2202;50.866;12.750;2023-04-04T13:15:20;3.23;;;2.93;;
4375;SDS011;2202;50.866;12.750;2023-04-04T13:17:48;6.33;;;2.70;;
4375;SDS011;2202;50.866;12.750;2023-04-04T13:20:17;4.13;;;3.17;;
4375;SDS011;2202;50.866;12.750;2023-04-04T13:22:45;3.17;;;2.70;;
4375;SDS011;2202;50.866;12.750;2023-04-04T13:25:12;2.83;;;2.63;;
4375;SDS011;2202;50.866;12.750;2023-04-04T13:27:39;3.63;;;3.30;;
4375;SDS011;2202;50.866;12.750;2023-04-04T13:30:08;3.00;;;2.70;;
4375;SDS011;2202;50.866;12.750;2023-04-04T13:32:35;3.63;;;3.27;;
4375;SDS011;2202;50.866;12.750;2023-04-04T13:35:02;3.40;;;3.10;;
4375;SDS011;2202;50.866;12.750;2023-04-04T13:37:29;3.30;;;3.00;;
4375;SDS011;2202;50.866;12.750;2023-04-04T13:39:56;3.10;;;2.80;;
4375;SDS011;2202;50.866;12.750;2023-04-04T13:42:22;4.53;;;3.23;;
4375;SDS011;2202;50.866;12.750;2023-04-04T13:44:54;3.00;;;2.60;;
4375;SDS011;2202;50.866;12.750;2023-04-04T13:47:23;4.03;;;3.63;;
4375;SDS011;2202;50.866;12.750;2023-04-04T13:49:51;2.97;;;2.67;;
4375;SDS011;2202;50.866;12.750;2023-04-04T13:52:19;3.23;;;2.93;;
4375;SDS011;2202;50.866;12.750;2023-04-04T13:54:46;3.43;;;3.13;;
4375;SDS011;2202;50.866;12.750;2023-04-04T13:57:13;3.40;;;3.10;;
4375;SDS011;2202;50.866;12.750;2023-04-04T13:59:40;2.73;;;2.50;;
4375;SDS011;2202;50.866;12.750;2023-04-04T14:02:06;2.73;;;2.53;;
4375;SDS011;2202;50.866;12.750;2023-04-04T14:04:36;4.50;;;3.20;;
4375;SDS011;2202;50.866;12.750;2023-04-04T14:07:02;2.73;;;2.13;;
4375;SDS011;2202;50.866;12.750;2023-04-04T14:09:30;3.70;;;2.33;;
4375;SDS011;2202;50.866;12.750;2023-04-04T14:11:57;7.87;;;4.40;;
4375;SDS011;2202;50.866;12.750;2023-04-04T14:14:24;2.90;;;2.50;;
4375;SDS011;2202;50.866;12.750;2023-04-04T14:16:50;2.77;;;2.33;;
4375;SDS011;2202;50.866;12.750;2023-04-04T14:19:17;3.23;;;2.70;;
4375;SDS011;2202;50.866;12.750;2023-04-04T14:21:45;8.43;;;4.60;;
4375;SDS011;2202;50.866;12.750;2023-04-04T14:24:13;3.83;;;2.80;;
4375;SDS011;2202;50.866;12.750;2023-04-04T14:26:40;6.60;;;4.30;;
4375;SDS011;2202;50.866;12.750;2023-04-04T14:29:07;8.40;;;3.70;;
4375;SDS011;2202;50.866;12.750;2023-04-04T14:31:34;5.43;;;3.13;;
4375;SDS011;2202;50.866;12.750;2023-04-04T14:34:01;4.60;;;4.10;;
4375;SDS011;2202;50.866;12.750;2023-04-04T14:36:28;4.40;;;2.93;;
4375;SDS011;2202;50.866;12.750;2023-04-04T14:38:56;3.80;;;3.20;;
4375;SDS011;2202;50.866;12.750;2023-04-04T14:41:23;4.30;;;3.10;;
4375;SDS011;2202;50.866;12.750;2023-04-04T14:43:50;3.60;;;2.90;;
4375;SDS011;2202;50.866;12.750;2023-04-04T14:46:17;2.97;;;2.57;;
4375;SDS011;2202;50.866;12.750;2023-04-04T14:48:44;4.07;;;3.10;;
4375;SDS011;2202;50.866;12.750;2023-04-04T14:51:11;5.13;;;3.63;;
4375;SDS011;2202;50.866;12.750;2023-04-04T14:53:38;3.37;;;2.97;;
4375;SDS011;2202;50.866;12.750;2023-04-04T14:56:07;4.50;;;3.80;;
4375;SDS011;2202;50.866;12.750;2023-04-04T14:58:34;7.13;;;3.50;;
4375;SDS011;2202;50.866;12.750;2023-04-04T15:01:01;4.40;;;3.53;;
4375;SDS011;2202;50.866;12.750;2023-04-04T15:03:28;3.83;;;3.53;;
4375;SDS011;2202;50.866;12.750;2023-04-04T15:05:55;8.00;;;5.90;;